createdAt,value
2019-05-06T00:02:15.994Z,0.40
2019-05-06T00:04:44.801Z,0.33
2019-05-06T00:07:13.795Z,0.30
2019-05-06T00:09:41.080Z,0.53
2019-05-06T00:12:08.505Z,0.33
2019-05-06T00:14:35.830Z,0.53
2019-05-06T00:17:03.879Z,0.40
2019-05-06T00:19:31.373Z,0.50
2019-05-06T00:21:58.710Z,0.37
2019-05-06T00:24:30.374Z,0.40
2019-05-06T00:27:15.194Z,0.30
2019-05-06T00:29:43.905Z,0.30
2019-05-06T00:32:15.019Z,0.40
2019-05-06T00:34:43.610Z,0.63
2019-05-06T00:37:11.060Z,0.27
2019-05-06T00:39:57.105Z,0.30
2019-05-06T00:42:34.412Z,0.50
2019-05-06T00:45:01.316Z,0.47
2019-05-06T00:47:29.033Z,0.27
2019-05-06T00:49:56.460Z,0.40
2019-05-06T00:52:26.007Z,0.30
2019-05-06T00:54:54.658Z,0.47
2019-05-06T00:57:43.806Z,0.50
2019-05-06T01:00:19.515Z,0.97
2019-05-06T01:02:46.763Z,0.40
2019-05-06T01:05:14.117Z,0.53
2019-05-06T01:07:43.831Z,0.30
2019-05-06T01:10:10.867Z,0.40
2019-05-06T01:12:43.437Z,0.40
2019-05-06T01:15:14.476Z,0.30
2019-05-06T01:17:41.713Z,0.30
2019-05-06T01:20:08.944Z,0.50
2019-05-06T01:22:36.289Z,0.33
2019-05-06T01:25:04.942Z,0.50
2019-05-06T01:27:33.750Z,0.40
2019-05-06T01:30:01.176Z,0.70
2019-05-06T01:32:28.494Z,0.40
2019-05-06T01:34:55.836Z,0.53
2019-05-06T01:37:24.346Z,0.40
2019-05-06T01:40:09.381Z,0.30
2019-05-06T01:43:03.602Z,0.50
2019-05-06T01:45:32.049Z,0.53
2019-05-06T01:47:59.353Z,0.40
2019-05-06T01:50:26.653Z,0.33
2019-05-06T01:52:54.133Z,0.50
2019-05-06T01:55:23.760Z,0.40
2019-05-06T01:57:50.589Z,0.30
2019-05-06T02:00:17.914Z,0.30
2019-05-06T02:02:45.356Z,0.33
2019-05-06T02:05:14.618Z,0.40
2019-05-06T02:07:43.930Z,0.40
2019-05-06T02:10:11.089Z,0.43
2019-05-06T02:12:38.765Z,0.40
2019-05-06T02:15:06.376Z,0.40
2019-05-06T02:17:34.523Z,0.40
2019-05-06T02:20:04.214Z,0.30
2019-05-06T02:22:41.552Z,0.50
2019-05-06T02:25:13.833Z,0.53
2019-05-06T02:27:41.373Z,0.40
2019-05-06T02:30:16.973Z,0.30
2019-05-06T02:32:56.335Z,0.40
2019-05-06T02:35:34.449Z,0.40
2019-05-06T02:38:00.857Z,0.30
2019-05-06T02:40:28.658Z,0.40
2019-05-06T02:42:56.046Z,0.40
2019-05-06T02:45:24.187Z,0.50
2019-05-06T02:47:58.881Z,0.37
2019-05-06T02:50:27.890Z,0.47
2019-05-06T02:52:55.441Z,0.40
2019-05-06T02:55:23.587Z,0.40
2019-05-06T02:57:53.699Z,0.50
2019-05-06T03:00:23.865Z,0.47
2019-05-06T03:02:53.996Z,0.40
2019-05-06T03:05:23.754Z,0.40
2019-05-06T03:07:56.913Z,0.43
2019-05-06T03:10:19.906Z,0.60
2019-05-06T03:12:47.137Z,0.40
2019-05-06T03:15:16.810Z,0.30
2019-05-06T03:17:43.977Z,0.50
2019-05-06T03:20:17.278Z,0.43
2019-05-06T03:23:03.510Z,0.47
2019-05-06T03:25:33.157Z,0.50
2019-05-06T03:28:03.966Z,0.40
2019-05-06T03:30:29.907Z,0.53
2019-05-06T03:33:31.843Z,0.50
2019-05-06T03:35:41.199Z,0.93
2019-05-06T03:37:55.276Z,0.30
2019-05-06T03:40:23.144Z,0.43
2019-05-06T03:42:53.640Z,0.37
2019-05-06T03:45:29.654Z,0.37
2019-05-06T03:48:05.940Z,0.50
2019-05-06T03:50:33.834Z,0.47
2019-05-06T03:53:03.276Z,0.40
2019-05-06T03:55:30.502Z,0.30
2019-05-06T03:57:58.033Z,0.40
2019-05-06T04:00:25.355Z,0.50
2019-05-06T04:02:53.658Z,0.40
2019-05-06T04:05:23.828Z,0.47
2019-05-06T04:07:52.778Z,0.40
2019-05-06T04:10:19.223Z,0.40
2019-05-06T04:12:46.526Z,0.50
2019-05-06T04:15:16.123Z,0.50
2019-05-06T04:18:07.033Z,0.43
2019-05-06T04:21:03.764Z,0.50
2019-05-06T04:23:49.303Z,0.50
2019-05-06T04:26:39.704Z,0.30
2019-05-06T04:29:07.506Z,0.40
2019-05-06T04:31:34.804Z,0.60
2019-05-06T04:34:13.477Z,0.40
2019-05-06T04:36:33.896Z,0.50
2019-05-06T04:39:04.237Z,0.50
2019-05-06T04:41:34.203Z,0.50
2019-05-06T04:44:02.895Z,0.50
2019-05-06T04:46:35.165Z,0.30
2019-05-06T04:49:04.664Z,0.50
2019-05-06T04:51:36.773Z,0.50
2019-05-06T04:54:04.678Z,0.37
2019-05-06T04:56:33.432Z,0.50
2019-05-06T04:59:05.807Z,0.40
2019-05-06T05:01:30.218Z,0.40
2019-05-06T05:03:58.782Z,0.50
2019-05-06T05:06:26.707Z,0.40
2019-05-06T05:08:54.137Z,0.50
2019-05-06T05:11:33.236Z,0.40
2019-05-06T05:14:24.746Z,0.50
2019-05-06T05:16:56.952Z,0.40
2019-05-06T05:19:24.208Z,0.33
2019-05-06T05:21:54.937Z,0.47
2019-05-06T05:24:23.507Z,0.70
2019-05-06T05:26:52.285Z,0.40
2019-05-06T05:29:19.530Z,0.40
2019-05-06T05:31:46.853Z,0.47
2019-05-06T05:34:14.164Z,0.50
2019-05-06T05:36:42.572Z,0.40
2019-05-06T05:39:12.409Z,0.60
2019-05-06T05:41:39.657Z,0.43
2019-05-06T05:44:12.502Z,0.60
2019-05-06T05:46:40.097Z,0.30
2019-05-06T05:49:27.132Z,0.57
2019-05-06T05:51:54.723Z,0.47
2019-05-06T05:54:23.112Z,0.57
2019-05-06T05:56:52.741Z,0.40
2019-05-06T05:59:20.072Z,0.40
2019-05-06T06:01:47.718Z,0.30
2019-05-06T06:04:15.042Z,0.50
2019-05-06T06:06:42.423Z,0.50
2019-05-06T06:09:09.900Z,0.43
2019-05-06T06:11:47.050Z,0.50
2019-05-06T06:14:47.329Z,0.47
2019-05-06T06:17:32.598Z,0.40
2019-05-06T06:20:03.129Z,0.40
2019-05-06T06:22:32.941Z,0.53
2019-05-06T06:25:00.302Z,0.30
2019-05-06T06:27:30.297Z,0.40
2019-05-06T06:29:57.565Z,0.40
2019-05-06T06:32:27.247Z,0.57
2019-05-06T06:35:10.136Z,0.50
2019-05-06T06:37:42.647Z,0.30
2019-05-06T06:40:12.971Z,0.50
2019-05-06T06:42:40.265Z,0.60
2019-05-06T06:45:08.209Z,0.50
2019-05-06T06:47:35.569Z,0.60
2019-05-06T06:50:03.226Z,0.40
2019-05-06T06:52:32.558Z,0.50
2019-05-06T06:54:59.693Z,0.37
2019-05-06T06:57:55.432Z,0.50
2019-05-06T07:00:33.604Z,0.57
2019-05-06T07:03:05.632Z,0.50
2019-05-06T07:06:02.351Z,0.40
2019-05-06T07:08:34.897Z,0.67
2019-05-06T07:10:59.134Z,0.50
2019-05-06T07:13:26.571Z,0.50
2019-05-06T07:15:53.905Z,0.30
2019-05-06T07:18:22.598Z,0.40
2019-05-06T07:21:09.814Z,0.43
2019-05-06T07:23:37.475Z,0.50
2019-05-06T07:26:05.439Z,0.60
2019-05-06T07:28:32.929Z,0.40
2019-05-06T07:31:17.595Z,0.50
2019-05-06T07:33:33.468Z,0.40
2019-05-06T07:36:02.173Z,0.40
2019-05-06T07:38:32.369Z,0.43
2019-05-06T07:41:14.992Z,0.50
2019-05-06T07:44:07.109Z,1.03
2019-05-06T07:46:49.002Z,0.57
2019-05-06T07:49:16.361Z,0.40
2019-05-06T07:51:43.713Z,0.67
2019-05-06T07:54:12.262Z,0.50
2019-05-06T07:56:40.124Z,0.57
2019-05-06T07:59:07.674Z,0.40
2019-05-06T08:01:36.572Z,0.60
2019-05-06T08:04:04.536Z,1.23
2019-05-06T08:06:32.144Z,0.50
2019-05-06T08:08:59.598Z,0.40
2019-05-06T08:11:27.176Z,0.40
2019-05-06T08:13:54.405Z,0.60
2019-05-06T08:16:22.736Z,0.67
2019-05-06T08:18:52.373Z,0.50
2019-05-06T08:21:23.028Z,0.57
2019-05-06T08:23:52.267Z,0.60
2019-05-06T08:26:22.252Z,0.50
2019-05-06T08:28:52.375Z,0.50
2019-05-06T08:31:22.190Z,0.80
2019-05-06T08:33:52.339Z,0.50
2019-05-06T08:36:28.496Z,0.63
2019-05-06T08:38:56.921Z,0.40
2019-05-06T08:41:24.902Z,0.60
2019-05-06T08:43:53.268Z,0.60
2019-05-06T08:46:23.215Z,0.50
2019-05-06T08:48:52.361Z,0.50
2019-05-06T08:51:48.997Z,0.53
2019-05-06T08:54:38.520Z,0.43
2019-05-06T08:57:06.071Z,0.33
2019-05-06T08:59:33.608Z,0.50
2019-05-06T09:02:03.098Z,0.70
2019-05-06T09:04:32.086Z,0.60
2019-05-06T09:06:59.710Z,0.40
2019-05-06T09:09:27.168Z,0.40
2019-05-06T09:11:54.516Z,0.50
2019-05-06T09:14:23.633Z,0.40
2019-05-06T09:16:53.728Z,0.57
2019-05-06T09:19:20.185Z,0.53
2019-05-06T09:21:47.489Z,0.97
2019-05-06T09:24:14.808Z,0.60
2019-05-06T09:26:46.573Z,0.63
2019-05-06T09:29:39.218Z,0.60
2019-05-06T09:32:13.990Z,0.50
2019-05-06T09:34:49.168Z,0.50
2019-05-06T09:37:18.224Z,0.50
2019-05-06T09:39:46.369Z,0.60
2019-05-06T09:42:13.801Z,0.70
2019-05-06T09:44:42.702Z,0.40
2019-05-06T09:47:15.080Z,0.60
2019-05-06T09:49:42.884Z,0.60
2019-05-06T09:52:12.794Z,0.60
2019-05-06T09:55:05.381Z,0.50
2019-05-06T09:57:52.412Z,0.60
2019-05-06T10:00:20.281Z,0.50
2019-05-06T10:02:49.549Z,0.70
2019-05-06T10:05:16.940Z,0.50
2019-05-06T10:07:44.250Z,0.70
2019-05-06T10:10:11.613Z,0.50
2019-05-06T10:12:41.954Z,0.70
2019-05-06T10:15:09.006Z,0.60
2019-05-06T10:17:36.320Z,0.87
2019-05-06T10:20:04.042Z,0.60
2019-05-06T10:22:33.254Z,0.30
2019-05-06T10:25:03.357Z,0.50
2019-05-06T10:27:31.801Z,0.60
2019-05-06T10:30:03.910Z,0.80
2019-05-06T10:32:52.978Z,0.77
2019-05-06T10:35:22.488Z,0.50
2019-05-06T10:37:55.820Z,0.57
2019-05-06T10:40:24.845Z,0.70
2019-05-06T10:42:59.187Z,0.47
2019-05-06T10:45:28.233Z,0.57
2019-05-06T10:47:56.187Z,0.60
2019-05-06T10:50:23.697Z,0.60
2019-05-06T10:53:09.401Z,0.60
2019-05-06T10:55:38.733Z,0.67
2019-05-06T10:58:06.401Z,0.50
2019-05-06T11:00:33.837Z,0.50
2019-05-06T11:03:14.851Z,0.67
2019-05-06T11:05:43.101Z,0.77
2019-05-06T11:08:11.118Z,0.63
2019-05-06T11:10:44.080Z,0.50
2019-05-06T11:13:09.574Z,0.60
2019-05-06T11:15:38.548Z,0.50
2019-05-06T11:18:08.990Z,0.57
2019-05-06T11:20:39.136Z,0.83
2019-05-06T11:23:07.940Z,0.80
2019-05-06T11:25:37.783Z,0.80
2019-05-06T11:28:26.346Z,0.70
2019-05-06T11:31:13.904Z,0.70
2019-05-06T11:33:47.525Z,0.80
2019-05-06T11:36:32.354Z,0.50
2019-05-06T11:38:59.797Z,0.50
2019-05-06T11:41:27.254Z,0.57
2019-05-06T11:43:54.572Z,0.57
2019-05-06T11:46:22.892Z,0.53
2019-05-06T11:48:52.280Z,0.70
2019-05-06T11:51:23.066Z,0.50
2019-05-06T11:53:53.887Z,0.80
2019-05-06T11:56:23.068Z,0.50
2019-05-06T11:58:53.319Z,0.70
2019-05-06T12:01:32.647Z,0.90
2019-05-06T12:03:59.153Z,0.70
2019-05-06T12:06:26.482Z,0.57
2019-05-06T12:08:53.916Z,0.60
2019-05-06T12:11:23.436Z,0.60
2019-05-06T12:13:53.004Z,0.70
2019-05-06T12:16:25.564Z,0.70
2019-05-06T12:18:49.057Z,0.60
2019-05-06T12:21:19.346Z,0.60
2019-05-06T12:23:45.480Z,0.60
2019-05-06T12:26:13.190Z,0.53
2019-05-06T12:28:43.557Z,0.67
2019-05-06T12:31:12.711Z,0.50
2019-05-06T12:33:44.468Z,0.70
2019-05-06T12:36:19.894Z,0.70
2019-05-06T12:39:06.868Z,0.70
2019-05-06T12:41:37.590Z,0.60
2019-05-06T12:44:04.902Z,0.70
2019-05-06T12:46:38.377Z,0.50
2019-05-06T12:49:05.705Z,0.73
2019-05-06T12:51:33.056Z,0.50
2019-05-06T12:54:00.241Z,0.57
2019-05-06T12:56:27.614Z,0.50
2019-05-06T12:58:55.180Z,0.67
2019-05-06T13:01:22.515Z,0.50
2019-05-06T13:03:49.821Z,0.80
2019-05-06T13:06:17.254Z,0.70
2019-05-06T13:08:57.385Z,0.70
2019-05-06T13:11:13.689Z,0.70
2019-05-06T13:13:55.642Z,0.50
2019-05-06T13:16:12.605Z,0.60
2019-05-06T13:18:40.263Z,0.80
2019-05-06T13:21:07.701Z,0.70
2019-05-06T13:23:47.940Z,0.80
2019-05-06T13:26:15.752Z,0.80
2019-05-06T13:28:47.441Z,0.80
2019-05-06T13:31:20.941Z,0.57
2019-05-06T13:33:55.350Z,0.67
2019-05-06T13:36:24.753Z,0.60
2019-05-06T13:39:08.338Z,0.83
2019-05-06T13:41:22.105Z,0.77
2019-05-06T13:44:12.930Z,0.70
2019-05-06T13:46:52.869Z,0.60
2019-05-06T13:49:43.029Z,0.60
2019-05-06T13:52:12.877Z,0.70
2019-05-06T13:54:42.168Z,0.63
2019-05-06T13:57:09.537Z,0.80
2019-05-06T13:59:38.438Z,0.70
2019-05-06T14:02:27.966Z,0.87
2019-05-06T14:04:56.848Z,0.90
2019-05-06T14:07:24.645Z,0.80
2019-05-06T14:09:53.201Z,0.70
2019-05-06T14:12:22.100Z,0.70
2019-05-06T14:14:49.526Z,1.00
2019-05-06T14:17:17.084Z,0.90
2019-05-06T14:19:44.469Z,0.73
2019-05-06T14:22:12.590Z,1.00
2019-05-06T14:24:43.500Z,0.70
2019-05-06T14:27:13.469Z,0.90
2019-05-06T14:29:45.933Z,0.90
2019-05-06T14:32:14.841Z,0.80
2019-05-06T14:34:43.321Z,0.70
2019-05-06T14:37:11.065Z,0.90
2019-05-06T14:39:53.339Z,0.70
2019-05-06T14:42:13.173Z,0.80
2019-05-06T14:44:42.840Z,0.87
2019-05-06T14:47:17.607Z,0.60
2019-05-06T14:49:45.069Z,0.50
2019-05-06T14:52:13.408Z,0.67
2019-05-06T14:54:55.430Z,0.93
2019-05-06T14:57:23.629Z,0.83
2019-05-06T14:59:54.960Z,0.70
2019-05-06T15:02:26.013Z,0.73
2019-05-06T15:04:53.530Z,0.60
2019-05-06T15:07:22.088Z,0.70
2019-05-06T15:10:02.102Z,0.83
2019-05-06T15:12:18.892Z,0.73
2019-05-06T15:14:46.248Z,0.73
2019-05-06T15:17:14.456Z,0.70
2019-05-06T15:19:43.104Z,0.80
2019-05-06T15:22:12.821Z,0.80
2019-05-06T15:24:42.436Z,0.90
2019-05-06T15:27:09.017Z,0.70
2019-05-06T15:29:36.329Z,0.60
2019-05-06T15:32:17.953Z,0.70
2019-05-06T15:34:56.841Z,0.60
2019-05-06T15:37:42.303Z,0.60
2019-05-06T15:40:09.121Z,0.63
2019-05-06T15:42:36.500Z,0.70
2019-05-06T15:45:04.494Z,0.80
2019-05-06T15:47:33.157Z,0.60
2019-05-06T15:50:00.365Z,0.80
2019-05-06T15:52:27.797Z,0.80
2019-05-06T15:54:56.326Z,0.70
2019-05-06T15:57:23.892Z,0.80
2019-05-06T15:59:52.901Z,0.83
2019-05-06T16:02:20.592Z,0.70
2019-05-06T16:04:48.756Z,0.60
2019-05-06T16:07:16.316Z,0.70
2019-05-06T16:09:43.625Z,0.70
2019-05-06T16:12:12.764Z,0.67
2019-05-06T16:14:42.325Z,0.97
2019-05-06T16:17:09.498Z,0.80
2019-05-06T16:19:37.830Z,0.60
2019-05-06T16:22:06.182Z,0.73
2019-05-06T16:24:46.057Z,0.50
2019-05-06T16:27:15.682Z,0.83
2019-05-06T16:29:43.248Z,0.63
2019-05-06T16:32:11.505Z,0.83
2019-05-06T16:34:39.488Z,0.87
2019-05-06T16:37:08.260Z,0.80
2019-05-06T16:39:38.153Z,0.53
2019-05-06T16:42:06.688Z,0.63
2019-05-06T16:44:36.335Z,0.77
2019-05-06T16:47:05.019Z,0.70
2019-05-06T16:49:33.779Z,0.57
2019-05-06T16:52:02.769Z,0.80
2019-05-06T16:54:31.570Z,0.97
2019-05-06T16:57:05.038Z,0.60
2019-05-06T16:59:33.591Z,0.70
2019-05-06T17:02:05.909Z,0.70
2019-05-06T17:04:41.880Z,0.80
2019-05-06T17:07:09.401Z,1.00
2019-05-06T17:09:38.697Z,0.70
2019-05-06T17:12:06.909Z,0.60
2019-05-06T17:14:35.285Z,0.70
2019-05-06T17:17:03.380Z,0.60
2019-05-06T17:19:32.398Z,0.67
2019-05-06T17:22:00.050Z,0.80
2019-05-06T17:24:27.922Z,0.70
2019-05-06T17:26:57.915Z,0.87
2019-05-06T17:29:44.456Z,0.80
2019-05-06T17:32:27.199Z,0.80
2019-05-06T17:34:57.693Z,0.60
2019-05-06T17:37:43.392Z,0.80
2019-05-06T17:40:14.088Z,1.00
2019-05-06T17:42:42.210Z,0.80
2019-05-06T17:45:31.970Z,0.90
2019-05-06T17:48:04.917Z,0.83
2019-05-06T17:50:33.273Z,0.70
2019-05-06T17:53:00.797Z,0.80
2019-05-06T17:55:28.036Z,0.80
2019-05-06T17:57:55.245Z,0.80
2019-05-06T18:00:22.681Z,0.70
2019-05-06T18:02:50.016Z,0.90
2019-05-06T18:05:17.364Z,0.60
2019-05-06T18:07:46.225Z,0.70
2019-05-06T18:10:13.902Z,0.60
2019-05-06T18:12:41.217Z,0.80
2019-05-06T18:15:08.581Z,0.80
2019-05-06T18:17:35.889Z,0.80
2019-05-06T18:20:04.000Z,0.80
2019-05-06T18:22:32.423Z,0.87
2019-05-06T18:25:02.235Z,0.80
2019-05-06T18:27:29.398Z,0.80
2019-05-06T18:30:10.174Z,0.73
2019-05-06T18:32:25.776Z,0.60
2019-05-06T18:34:53.460Z,1.00
2019-05-06T18:37:22.825Z,0.77
2019-05-06T18:39:53.880Z,0.60
2019-05-06T18:42:23.526Z,1.20
2019-05-06T18:44:51.140Z,0.97
2019-05-06T18:47:20.944Z,0.70
2019-05-06T18:49:52.134Z,0.80
2019-05-06T18:52:18.933Z,0.70
2019-05-06T18:54:46.356Z,0.70
2019-05-06T18:57:13.890Z,0.73
2019-05-06T18:59:42.626Z,0.70
2019-05-06T19:02:10.310Z,0.90
2019-05-06T19:04:52.314Z,0.67
2019-05-06T19:07:21.497Z,0.67
2019-05-06T19:10:03.202Z,1.17
2019-05-06T19:12:39.843Z,0.80
2019-05-06T19:14:59.704Z,0.80
2019-05-06T19:17:29.962Z,0.90
2019-05-06T19:19:58.125Z,0.80
2019-05-06T19:22:25.421Z,0.90
2019-05-06T19:24:52.953Z,1.10
2019-05-06T19:27:20.248Z,0.60
2019-05-06T19:29:47.816Z,0.77
2019-05-06T19:32:15.169Z,0.83
2019-05-06T19:34:44.038Z,0.70
2019-05-06T19:37:12.229Z,0.80
2019-05-06T19:39:40.442Z,0.70
2019-05-06T19:42:08.416Z,0.60
2019-05-06T19:44:35.985Z,0.80
2019-05-06T19:47:03.745Z,0.60
2019-05-06T19:49:32.751Z,0.80
2019-05-06T19:52:00.234Z,0.77
2019-05-06T19:54:28.702Z,0.80
2019-05-06T19:56:57.138Z,0.70
2019-05-06T20:02:05.170Z,0.70
2019-05-06T20:04:33.560Z,0.63
2019-05-06T20:07:09.769Z,0.90
2019-05-06T20:09:52.166Z,0.80
2019-05-06T20:12:28.899Z,0.90
2019-05-06T20:15:16.065Z,0.80
2019-05-06T20:17:43.384Z,0.90
2019-05-06T20:20:12.457Z,0.90
2019-05-06T20:22:42.159Z,0.87
2019-05-06T20:25:09.318Z,0.90
2019-05-06T20:27:37.461Z,0.80
2019-05-06T20:30:04.930Z,0.87
2019-05-06T20:32:33.665Z,0.97
2019-05-06T20:35:00.974Z,0.80
2019-05-06T20:37:28.332Z,0.80
2019-05-06T20:39:55.860Z,0.70
2019-05-06T20:42:23.160Z,0.80
2019-05-06T20:44:52.385Z,1.13
2019-05-06T20:47:19.698Z,1.00
2019-05-06T20:49:47.032Z,1.00
2019-05-06T20:52:14.603Z,0.80
2019-05-06T20:54:45.182Z,0.90
2019-05-06T20:57:12.545Z,0.80
2019-05-06T20:59:42.011Z,0.73
2019-05-06T21:02:09.414Z,0.70
2019-05-06T21:04:36.725Z,0.60
2019-05-06T21:07:03.931Z,1.00
2019-05-06T21:09:32.101Z,1.00
2019-05-06T21:11:59.452Z,0.70
2019-05-06T21:16:09.441Z,0.90
2019-05-06T21:18:38.174Z,0.80
2019-05-06T21:21:05.456Z,0.83
2019-05-06T21:23:32.763Z,0.77
2019-05-06T21:26:00.122Z,1.00
2019-05-06T21:28:27.428Z,0.80
2019-05-06T21:30:54.744Z,0.90
2019-05-06T21:33:22.242Z,1.00
2019-05-06T21:35:52.075Z,1.00
2019-05-06T21:38:19.088Z,0.93
2019-05-06T21:40:46.437Z,0.80
2019-05-06T21:43:13.761Z,0.80
2019-05-06T21:45:42.402Z,0.90
2019-05-06T21:48:09.937Z,0.80
2019-05-06T21:50:39.165Z,0.83
2019-05-06T21:53:06.497Z,1.00
2019-05-06T21:55:33.808Z,0.73
2019-05-06T21:58:02.167Z,1.00
2019-05-06T22:00:52.562Z,1.00
2019-05-06T22:03:19.439Z,0.93
2019-05-06T22:05:46.997Z,0.93
2019-05-06T22:08:14.621Z,0.90
2019-05-06T22:10:42.272Z,1.00
2019-05-06T22:13:09.661Z,0.90
2019-05-06T22:15:36.979Z,1.00
2019-05-06T22:18:05.078Z,1.00
2019-05-06T22:20:53.005Z,0.97
2019-05-06T22:23:22.207Z,0.90
2019-05-06T22:25:49.464Z,1.10
2019-05-06T22:28:16.808Z,1.00
2019-05-06T22:30:44.166Z,0.87
2019-05-06T22:33:12.619Z,1.03
2019-05-06T22:35:40.129Z,0.87
2019-05-06T22:38:07.395Z,1.10
2019-05-06T22:40:34.709Z,1.10
2019-05-06T22:43:03.182Z,0.93
2019-05-06T22:45:32.883Z,1.00
2019-05-06T22:47:59.888Z,0.90
2019-05-06T22:50:27.188Z,0.80
2019-05-06T22:52:54.525Z,0.80
2019-05-06T22:55:22.140Z,0.83
2019-05-06T22:57:49.576Z,0.83
2019-05-06T23:00:22.277Z,0.90
2019-05-06T23:03:02.716Z,0.77
2019-05-06T23:05:32.463Z,1.00
2019-05-06T23:07:59.297Z,1.07
2019-05-06T23:10:26.600Z,0.77
2019-05-06T23:12:53.935Z,0.83
2019-05-06T23:15:21.450Z,1.00
2019-05-06T23:17:48.841Z,0.90
2019-05-06T23:20:16.258Z,0.97
2019-05-06T23:22:43.565Z,0.80
2019-05-06T23:25:12.508Z,1.00
2019-05-06T23:27:43.794Z,1.10
2019-05-06T23:30:09.360Z,1.00
2019-05-06T23:32:36.685Z,0.83
2019-05-06T23:35:04.674Z,1.07
2019-05-06T23:37:31.220Z,0.93
2019-05-06T23:40:38.048Z,1.20
2019-05-06T23:43:42.859Z,0.80
2019-05-06T23:46:47.225Z,1.10
2019-05-06T23:49:52.707Z,0.80
2019-05-06T23:52:57.537Z,1.07
2019-05-06T23:56:02.771Z,1.07
2019-05-06T23:58:32.226Z,0.90
